sensor_id;sensor_type;location;lat;lon;timestamp;P1;durP1;ratioP1;P2;durP2;ratioP2
61821;SDS011;47749;51.104;7.008;2023-11-19T00:00:04;2.93;;;1.70;;
61821;SDS011;47749;51.104;7.008;2023-11-19T00:00:28;3.22;;;1.38;;
61821;SDS011;47749;51.104;7.008;2023-11-19T00:00:48;4.05;;;1.60;;
61821;SDS011;47749;51.104;7.008;2023-11-19T00:01:08;3.33;;;1.70;;
61821;SDS011;47749;51.104;7.008;2023-11-19T00:01:28;2.67;;;1.53;;
61821;SDS011;47749;51.104;7.008;2023-11-19T00:01:49;2.10;;;1.30;;
61821;SDS011;47749;51.104;7.008;2023-11-19T00:02:09;2.40;;;1.40;;
61821;SDS011;47749;51.104;7.008;2023-11-19T00:02:29;2.13;;;1.33;;
61821;SDS011;47749;51.104;7.008;2023-11-19T00:02:50;3.03;;;1.40;;
61821;SDS011;47749;51.104;7.008;2023-11-19T00:03:10;3.90;;;1.50;;
61821;SDS011;47749;51.104;7.008;2023-11-19T00:03:31;2.45;;;1.40;;
61821;SDS011;47749;51.104;7.008;2023-11-19T00:03:51;3.10;;;1.63;;
61821;SDS011;47749;51.104;7.008;2023-11-19T00:04:11;2.53;;;1.60;;
61821;SDS011;47749;51.104;7.008;2023-11-19T00:04:36;2.53;;;1.40;;
61821;SDS011;47749;51.104;7.008;2023-11-19T00:04:59;3.95;;;1.50;;
61821;SDS011;47749;51.104;7.008;2023-11-19T00:05:20;2.17;;;1.23;;
61821;SDS011;47749;51.104;7.008;2023-11-19T00:05:40;1.88;;;1.23;;
61821;SDS011;47749;51.104;7.008;2023-11-19T00:06:01;2.15;;;1.30;;
61821;SDS011;47749;51.104;7.008;2023-11-19T00:06:23;2.83;;;1.20;;
61821;SDS011;47749;51.104;7.008;2023-11-19T00:06:43;3.25;;;1.38;;
61821;SDS011;47749;51.104;7.008;2023-11-19T00:07:05;2.63;;;1.42;;
61821;SDS011;47749;51.104;7.008;2023-11-19T00:07:28;2.45;;;1.40;;
61821;SDS011;47749;51.104;7.008;2023-11-19T00:07:49;2.65;;;1.40;;
61821;SDS011;47749;51.104;7.008;2023-11-19T00:08:10;2.60;;;1.40;;
61821;SDS011;47749;51.104;7.008;2023-11-19T00:08:31;2.78;;;1.50;;
61821;SDS011;47749;51.104;7.008;2023-11-19T00:08:52;3.10;;;1.50;;
61821;SDS011;47749;51.104;7.008;2023-11-19T00:09:13;2.30;;;1.38;;
61821;SDS011;47749;51.104;7.008;2023-11-19T00:09:33;2.17;;;1.30;;
61821;SDS011;47749;51.104;7.008;2023-11-19T00:09:56;2.60;;;1.40;;
61821;SDS011;47749;51.104;7.008;2023-11-19T00:10:17;2.83;;;1.50;;
61821;SDS011;47749;51.104;7.008;2023-11-19T00:10:40;2.13;;;1.33;;
61821;SDS011;47749;51.104;7.008;2023-11-19T00:11:01;2.67;;;1.50;;
61821;SDS011;47749;51.104;7.008;2023-11-19T00:11:21;2.77;;;1.50;;
61821;SDS011;47749;51.104;7.008;2023-11-19T00:11:41;2.17;;;1.30;;
61821;SDS011;47749;51.104;7.008;2023-11-19T00:12:02;2.73;;;1.50;;
61821;SDS011;47749;51.104;7.008;2023-11-19T00:12:22;2.78;;;1.40;;
61821;SDS011;47749;51.104;7.008;2023-11-19T00:12:43;3.50;;;1.40;;
61821;SDS011;47749;51.104;7.008;2023-11-19T00:13:06;2.55;;;1.30;;
61821;SDS011;47749;51.104;7.008;2023-11-19T00:13:27;2.35;;;1.45;;
61821;SDS011;47749;51.104;7.008;2023-11-19T00:13:47;2.13;;;1.40;;
61821;SDS011;47749;51.104;7.008;2023-11-19T00:14:08;2.20;;;1.20;;
61821;SDS011;47749;51.104;7.008;2023-11-19T00:14:28;2.83;;;1.43;;
61821;SDS011;47749;51.104;7.008;2023-11-19T00:14:49;2.58;;;1.40;;
61821;SDS011;47749;51.104;7.008;2023-11-19T00:15:10;2.33;;;1.40;;
61821;SDS011;47749;51.104;7.008;2023-11-19T00:15:31;2.30;;;1.40;;
61821;SDS011;47749;51.104;7.008;2023-11-19T00:15:51;2.60;;;1.40;;
61821;SDS011;47749;51.104;7.008;2023-11-19T00:16:13;3.38;;;1.40;;
61821;SDS011;47749;51.104;7.008;2023-11-19T00:16:33;2.93;;;1.30;;
61821;SDS011;47749;51.104;7.008;2023-11-19T00:16:53;2.13;;;1.40;;
61821;SDS011;47749;51.104;7.008;2023-11-19T00:17:13;2.38;;;1.40;;
61821;SDS011;47749;51.104;7.008;2023-11-19T00:17:34;2.90;;;1.47;;
61821;SDS011;47749;51.104;7.008;2023-11-19T00:17:54;2.50;;;1.20;;
61821;SDS011;47749;51.104;7.008;2023-11-19T00:18:14;2.38;;;1.30;;
61821;SDS011;47749;51.104;7.008;2023-11-19T00:18:34;2.67;;;1.40;;
61821;SDS011;47749;51.104;7.008;2023-11-19T00:18:56;2.25;;;1.27;;
61821;SDS011;47749;51.104;7.008;2023-11-19T00:19:16;2.75;;;1.48;;
61821;SDS011;47749;51.104;7.008;2023-11-19T00:19:36;2.70;;;1.70;;
61821;SDS011;47749;51.104;7.008;2023-11-19T00:19:57;2.43;;;1.70;;
61821;SDS011;47749;51.104;7.008;2023-11-19T00:20:17;2.33;;;1.30;;
61821;SDS011;47749;51.104;7.008;2023-11-19T00:20:38;2.47;;;1.30;;
61821;SDS011;47749;51.104;7.008;2023-11-19T00:20:58;2.57;;;1.40;;
61821;SDS011;47749;51.104;7.008;2023-11-19T00:21:18;2.73;;;1.53;;
61821;SDS011;47749;51.104;7.008;2023-11-19T00:21:39;2.83;;;1.60;;
61821;SDS011;47749;51.104;7.008;2023-11-19T00:22:01;2.85;;;1.45;;
61821;SDS011;47749;51.104;7.008;2023-11-19T00:22:22;2.78;;;1.60;;
61821;SDS011;47749;51.104;7.008;2023-11-19T00:22:43;2.53;;;1.43;;
61821;SDS011;47749;51.104;7.008;2023-11-19T00:23:03;2.97;;;1.40;;
61821;SDS011;47749;51.104;7.008;2023-11-19T00:23:24;2.45;;;1.50;;
61821;SDS011;47749;51.104;7.008;2023-11-19T00:23:44;2.30;;;1.40;;
61821;SDS011;47749;51.104;7.008;2023-11-19T00:24:04;2.87;;;1.47;;
61821;SDS011;47749;51.104;7.008;2023-11-19T00:24:25;2.30;;;1.40;;
61821;SDS011;47749;51.104;7.008;2023-11-19T00:24:45;2.80;;;1.50;;
61821;SDS011;47749;51.104;7.008;2023-11-19T00:25:05;3.03;;;1.60;;
61821;SDS011;47749;51.104;7.008;2023-11-19T00:25:26;3.43;;;1.50;;
61821;SDS011;47749;51.104;7.008;2023-11-19T00:25:46;3.20;;;1.50;;
61821;SDS011;47749;51.104;7.008;2023-11-19T00:26:07;2.05;;;1.20;;
61821;SDS011;47749;51.104;7.008;2023-11-19T00:26:29;2.10;;;1.33;;
61821;SDS011;47749;51.104;7.008;2023-11-19T00:26:50;2.88;;;1.48;;
61821;SDS011;47749;51.104;7.008;2023-11-19T00:27:11;3.47;;;1.40;;
61821;SDS011;47749;51.104;7.008;2023-11-19T00:27:31;3.90;;;1.50;;
61821;SDS011;47749;51.104;7.008;2023-11-19T00:27:52;3.90;;;1.60;;
61821;SDS011;47749;51.104;7.008;2023-11-19T00:28:14;3.15;;;1.50;;
61821;SDS011;47749;51.104;7.008;2023-11-19T00:28:34;3.00;;;1.50;;
61821;SDS011;47749;51.104;7.008;2023-11-19T00:28:55;2.63;;;1.42;;
61821;SDS011;47749;51.104;7.008;2023-11-19T00:29:16;2.67;;;1.30;;
61821;SDS011;47749;51.104;7.008;2023-11-19T00:29:38;3.80;;;1.40;;
61821;SDS011;47749;51.104;7.008;2023-11-19T00:29:59;2.97;;;1.40;;
61821;SDS011;47749;51.104;7.008;2023-11-19T00:30:19;3.30;;;1.40;;
61821;SDS011;47749;51.104;7.008;2023-11-19T00:30:39;2.40;;;1.50;;
61821;SDS011;47749;51.104;7.008;2023-11-19T00:31:01;2.90;;;1.40;;
61821;SDS011;47749;51.104;7.008;2023-11-19T00:31:23;3.67;;;1.42;;
61821;SDS011;47749;51.104;7.008;2023-11-19T00:31:43;2.53;;;1.30;;
61821;SDS011;47749;51.104;7.008;2023-11-19T00:32:03;3.00;;;1.27;;
61821;SDS011;47749;51.104;7.008;2023-11-19T00:32:25;2.58;;;1.30;;
61821;SDS011;47749;51.104;7.008;2023-11-19T00:32:45;2.77;;;1.40;;
61821;SDS011;47749;51.104;7.008;2023-11-19T00:33:05;3.57;;;1.50;;
61821;SDS011;47749;51.104;7.008;2023-11-19T00:33:26;3.70;;;1.30;;
61821;SDS011;47749;51.104;7.008;2023-11-19T00:33:46;2.40;;;1.33;;
61821;SDS011;47749;51.104;7.008;2023-11-19T00:34:06;3.00;;;1.57;;
61821;SDS011;47749;51.104;7.008;2023-11-19T00:34:27;3.20;;;1.50;;
61821;SDS011;47749;51.104;7.008;2023-11-19T00:34:47;2.28;;;1.27;;
61821;SDS011;47749;51.104;7.008;2023-11-19T00:35:08;2.37;;;1.30;;
61821;SDS011;47749;51.104;7.008;2023-11-19T00:35:30;2.22;;;1.30;;
61821;SDS011;47749;51.104;7.008;2023-11-19T00:35:51;2.40;;;1.30;;
61821;SDS011;47749;51.104;7.008;2023-11-19T00:36:12;2.80;;;1.60;;
61821;SDS011;47749;51.104;7.008;2023-11-19T00:36:33;2.67;;;1.60;;
61821;SDS011;47749;51.104;7.008;2023-11-19T00:36:53;2.23;;;1.40;;
61821;SDS011;47749;51.104;7.008;2023-11-19T00:37:15;2.47;;;1.33;;
61821;SDS011;47749;51.104;7.008;2023-11-19T00:37:35;3.10;;;1.40;;
61821;SDS011;47749;51.104;7.008;2023-11-19T00:37:56;2.20;;;1.30;;
61821;SDS011;47749;51.104;7.008;2023-11-19T00:38:17;2.58;;;1.27;;
61821;SDS011;47749;51.104;7.008;2023-11-19T00:38:38;2.50;;;1.20;;
61821;SDS011;47749;51.104;7.008;2023-11-19T00:38:58;2.33;;;1.23;;
61821;SDS011;47749;51.104;7.008;2023-11-19T00:39:19;2.37;;;1.23;;
61821;SDS011;47749;51.104;7.008;2023-11-19T00:39:41;2.05;;;1.15;;
61821;SDS011;47749;51.104;7.008;2023-11-19T00:40:02;2.20;;;1.25;;
61821;SDS011;47749;51.104;7.008;2023-11-19T00:40:25;2.08;;;1.27;;
61821;SDS011;47749;51.104;7.008;2023-11-19T00:40:45;1.90;;;1.20;;
61821;SDS011;47749;51.104;7.008;2023-11-19T00:41:06;1.77;;;1.10;;
61821;SDS011;47749;51.104;7.008;2023-11-19T00:41:26;1.90;;;1.20;;
61821;SDS011;47749;51.104;7.008;2023-11-19T00:41:46;1.90;;;1.20;;
61821;SDS011;47749;51.104;7.008;2023-11-19T00:42:07;2.27;;;1.30;;
61821;SDS011;47749;51.104;7.008;2023-11-19T00:42:27;3.00;;;1.40;;
61821;SDS011;47749;51.104;7.008;2023-11-19T00:42:47;2.60;;;1.30;;
61821;SDS011;47749;51.104;7.008;2023-11-19T00:43:07;2.57;;;1.20;;
61821;SDS011;47749;51.104;7.008;2023-11-19T00:43:28;2.70;;;1.30;;
61821;SDS011;47749;51.104;7.008;2023-11-19T00:43:49;2.17;;;1.30;;
61821;SDS011;47749;51.104;7.008;2023-11-19T00:44:09;2.75;;;1.35;;
61821;SDS011;47749;51.104;7.008;2023-11-19T00:44:31;4.25;;;1.52;;
61821;SDS011;47749;51.104;7.008;2023-11-19T00:44:51;3.40;;;1.50;;
61821;SDS011;47749;51.104;7.008;2023-11-19T00:45:11;2.95;;;1.30;;
61821;SDS011;47749;51.104;7.008;2023-11-19T00:45:32;3.40;;;1.27;;
61821;SDS011;47749;51.104;7.008;2023-11-19T00:45:53;3.00;;;1.47;;
61821;SDS011;47749;51.104;7.008;2023-11-19T00:46:13;2.65;;;1.38;;
61821;SDS011;47749;51.104;7.008;2023-11-19T00:46:34;3.07;;;1.30;;
61821;SDS011;47749;51.104;7.008;2023-11-19T00:46:54;2.90;;;1.20;;
61821;SDS011;47749;51.104;7.008;2023-11-19T00:47:14;1.93;;;1.30;;
61821;SDS011;47749;51.104;7.008;2023-11-19T00:47:34;3.20;;;1.40;;
61821;SDS011;47749;51.104;7.008;2023-11-19T00:47:55;2.72;;;1.30;;
61821;SDS011;47749;51.104;7.008;2023-11-19T00:48:15;1.80;;;1.20;;
61821;SDS011;47749;51.104;7.008;2023-11-19T00:48:37;2.28;;;1.30;;
61821;SDS011;47749;51.104;7.008;2023-11-19T00:48:57;3.97;;;1.25;;
61821;SDS011;47749;51.104;7.008;2023-11-19T00:49:19;3.20;;;1.20;;
61821;SDS011;47749;51.104;7.008;2023-11-19T00:49:40;2.10;;;1.27;;
61821;SDS011;47749;51.104;7.008;2023-11-19T00:50:01;2.10;;;1.30;;
61821;SDS011;47749;51.104;7.008;2023-11-19T00:50:21;3.30;;;1.40;;
61821;SDS011;47749;51.104;7.008;2023-11-19T00:50:42;2.67;;;1.15;;
61821;SDS011;47749;51.104;7.008;2023-11-19T00:51:05;1.75;;;1.20;;
61821;SDS011;47749;51.104;7.008;2023-11-19T00:51:26;2.22;;;1.20;;
61821;SDS011;47749;51.104;7.008;2023-11-19T00:51:46;2.03;;;1.20;;
61821;SDS011;47749;51.104;7.008;2023-11-19T00:52:06;2.00;;;1.25;;
61821;SDS011;47749;51.104;7.008;2023-11-19T00:52:27;1.80;;;1.30;;
61821;SDS011;47749;51.104;7.008;2023-11-19T00:52:47;2.63;;;1.40;;
61821;SDS011;47749;51.104;7.008;2023-11-19T00:53:07;4.78;;;1.42;;
61821;SDS011;47749;51.104;7.008;2023-11-19T00:53:27;3.10;;;1.30;;
61821;SDS011;47749;51.104;7.008;2023-11-19T00:53:48;2.80;;;1.20;;
61821;SDS011;47749;51.104;7.008;2023-11-19T00:54:08;2.40;;;1.20;;
61821;SDS011;47749;51.104;7.008;2023-11-19T00:54:29;2.43;;;1.27;;
61821;SDS011;47749;51.104;7.008;2023-11-19T00:54:49;2.33;;;1.30;;
61821;SDS011;47749;51.104;7.008;2023-11-19T00:55:09;3.03;;;1.30;;
61821;SDS011;47749;51.104;7.008;2023-11-19T00:55:30;3.17;;;1.27;;
61821;SDS011;47749;51.104;7.008;2023-11-19T00:55:50;2.33;;;1.40;;
61821;SDS011;47749;51.104;7.008;2023-11-19T00:56:10;2.20;;;1.30;;
61821;SDS011;47749;51.104;7.008;2023-11-19T00:56:32;2.05;;;1.20;;
61821;SDS011;47749;51.104;7.008;2023-11-19T00:56:52;2.43;;;1.20;;
61821;SDS011;47749;51.104;7.008;2023-11-19T00:57:13;2.25;;;1.27;;
61821;SDS011;47749;51.104;7.008;2023-11-19T00:57:33;2.47;;;1.27;;
61821;SDS011;47749;51.104;7.008;2023-11-19T00:57:53;2.28;;;1.20;;
61821;SDS011;47749;51.104;7.008;2023-11-19T00:58:16;2.10;;;1.10;;
61821;SDS011;47749;51.104;7.008;2023-11-19T00:58:38;2.20;;;1.20;;
61821;SDS011;47749;51.104;7.008;2023-11-19T00:58:58;1.93;;;1.30;;
61821;SDS011;47749;51.104;7.008;2023-11-19T00:59:20;3.50;;;1.40;;
61821;SDS011;47749;51.104;7.008;2023-11-19T00:59:43;3.22;;;1.30;;
61821;SDS011;47749;51.104;7.008;2023-11-19T01:00:04;2.80;;;1.40;;
61821;SDS011;47749;51.104;7.008;2023-11-19T01:00:31;2.38;;;1.40;;
61821;SDS011;47749;51.104;7.008;2023-11-19T01:00:52;2.45;;;1.35;;
61821;SDS011;47749;51.104;7.008;2023-11-19T01:01:13;2.17;;;1.30;;
61821;SDS011;47749;51.104;7.008;2023-11-19T01:01:33;1.77;;;1.10;;
61821;SDS011;47749;51.104;7.008;2023-11-19T01:01:53;1.93;;;1.20;;
61821;SDS011;47749;51.104;7.008;2023-11-19T01:02:13;2.47;;;1.30;;
61821;SDS011;47749;51.104;7.008;2023-11-19T01:02:34;2.05;;;1.30;;
61821;SDS011;47749;51.104;7.008;2023-11-19T01:02:55;1.92;;;1.30;;
61821;SDS011;47749;51.104;7.008;2023-11-19T01:03:15;2.40;;;1.30;;
61821;SDS011;47749;51.104;7.008;2023-11-19T01:03:35;2.60;;;1.40;;
61821;SDS011;47749;51.104;7.008;2023-11-19T01:03:56;2.42;;;1.30;;
61821;SDS011;47749;51.104;7.008;2023-11-19T01:04:17;2.72;;;1.50;;
61821;SDS011;47749;51.104;7.008;2023-11-19T01:04:37;2.73;;;1.40;;
61821;SDS011;47749;51.104;7.008;2023-11-19T01:04:58;3.33;;;1.50;;
61821;SDS011;47749;51.104;7.008;2023-11-19T01:05:19;2.47;;;1.40;;
61821;SDS011;47749;51.104;7.008;2023-11-19T01:05:42;4.03;;;1.40;;
61821;SDS011;47749;51.104;7.008;2023-11-19T01:06:04;2.90;;;1.52;;
61821;SDS011;47749;51.104;7.008;2023-11-19T01:06:27;2.33;;;1.35;;
61821;SDS011;47749;51.104;7.008;2023-11-19T01:06:48;3.05;;;1.30;;
61821;SDS011;47749;51.104;7.008;2023-11-19T01:07:08;3.00;;;1.30;;
61821;SDS011;47749;51.104;7.008;2023-11-19T01:07:32;2.53;;;1.38;;
61821;SDS011;47749;51.104;7.008;2023-11-19T01:07:53;2.53;;;1.40;;
61821;SDS011;47749;51.104;7.008;2023-11-19T01:08:14;2.40;;;1.30;;
61821;SDS011;47749;51.104;7.008;2023-11-19T01:08:36;2.25;;;1.38;;
61821;SDS011;47749;51.104;7.008;2023-11-19T01:08:56;2.38;;;1.40;;
61821;SDS011;47749;51.104;7.008;2023-11-19T01:09:16;2.60;;;1.37;;
61821;SDS011;47749;51.104;7.008;2023-11-19T01:09:37;3.50;;;1.40;;
61821;SDS011;47749;51.104;7.008;2023-11-19T01:09:58;2.63;;;1.30;;
61821;SDS011;47749;51.104;7.008;2023-11-19T01:10:18;2.50;;;1.23;;
61821;SDS011;47749;51.104;7.008;2023-11-19T01:10:38;2.53;;;1.30;;
61821;SDS011;47749;51.104;7.008;2023-11-19T01:10:59;2.22;;;1.20;;
61821;SDS011;47749;51.104;7.008;2023-11-19T01:11:20;2.45;;;1.40;;
61821;SDS011;47749;51.104;7.008;2023-11-19T01:11:41;2.33;;;1.30;;
61821;SDS011;47749;51.104;7.008;2023-11-19T01:12:01;2.13;;;1.27;;
61821;SDS011;47749;51.104;7.008;2023-11-19T01:12:21;2.25;;;1.30;;
61821;SDS011;47749;51.104;7.008;2023-11-19T01:12:42;2.67;;;1.30;;
61821;SDS011;47749;51.104;7.008;2023-11-19T01:13:02;3.83;;;1.50;;
61821;SDS011;47749;51.104;7.008;2023-11-19T01:13:25;2.60;;;1.20;;
61821;SDS011;47749;51.104;7.008;2023-11-19T01:13:46;2.10;;;1.20;;
61821;SDS011;47749;51.104;7.008;2023-11-19T01:14:06;2.80;;;1.40;;
61821;SDS011;47749;51.104;7.008;2023-11-19T01:14:27;2.38;;;1.23;;
61821;SDS011;47749;51.104;7.008;2023-11-19T01:14:47;2.83;;;1.30;;
61821;SDS011;47749;51.104;7.008;2023-11-19T01:15:07;2.80;;;1.33;;
61821;SDS011;47749;51.104;7.008;2023-11-19T01:15:28;3.33;;;1.50;;
61821;SDS011;47749;51.104;7.008;2023-11-19T01:15:48;2.70;;;1.50;;
61821;SDS011;47749;51.104;7.008;2023-11-19T01:16:09;2.63;;;1.37;;
61821;SDS011;47749;51.104;7.008;2023-11-19T01:16:29;2.92;;;1.33;;
61821;SDS011;47749;51.104;7.008;2023-11-19T01:16:51;2.00;;;1.23;;
61821;SDS011;47749;51.104;7.008;2023-11-19T01:17:14;2.10;;;1.30;;
61821;SDS011;47749;51.104;7.008;2023-11-19T01:17:34;3.33;;;1.40;;
61821;SDS011;47749;51.104;7.008;2023-11-19T01:17:54;3.27;;;1.23;;
61821;SDS011;47749;51.104;7.008;2023-11-19T01:18:14;2.43;;;1.30;;
61821;SDS011;47749;51.104;7.008;2023-11-19T01:18:35;3.40;;;1.33;;
61821;SDS011;47749;51.104;7.008;2023-11-19T01:18:55;3.10;;;1.42;;
61821;SDS011;47749;51.104;7.008;2023-11-19T01:19:16;3.17;;;1.37;;
61821;SDS011;47749;51.104;7.008;2023-11-19T01:19:36;2.43;;;1.40;;
61821;SDS011;47749;51.104;7.008;2023-11-19T01:19:57;3.40;;;1.52;;
61821;SDS011;47749;51.104;7.008;2023-11-19T01:20:17;2.37;;;1.50;;
61821;SDS011;47749;51.104;7.008;2023-11-19T01:20:37;2.58;;;1.40;;
61821;SDS011;47749;51.104;7.008;2023-11-19T01:20:58;3.03;;;1.70;;
61821;SDS011;47749;51.104;7.008;2023-11-19T01:21:18;2.83;;;1.47;;
61821;SDS011;47749;51.104;7.008;2023-11-19T01:21:39;2.40;;;1.40;;
61821;SDS011;47749;51.104;7.008;2023-11-19T01:22:00;3.33;;;1.40;;
61821;SDS011;47749;51.104;7.008;2023-11-19T01:22:20;3.20;;;1.30;;
61821;SDS011;47749;51.104;7.008;2023-11-19T01:22:41;2.33;;;1.30;;
61821;SDS011;47749;51.104;7.008;2023-11-19T01:23:01;2.80;;;1.60;;
61821;SDS011;47749;51.104;7.008;2023-11-19T01:23:22;3.23;;;1.50;;
61821;SDS011;47749;51.104;7.008;2023-11-19T01:23:42;2.92;;;1.45;;
61821;SDS011;47749;51.104;7.008;2023-11-19T01:24:03;2.78;;;1.38;;
61821;SDS011;47749;51.104;7.008;2023-11-19T01:24:26;2.90;;;1.30;;
61821;SDS011;47749;51.104;7.008;2023-11-19T01:24:48;2.20;;;1.30;;
61821;SDS011;47749;51.104;7.008;2023-11-19T01:25:09;2.20;;;1.48;;
61821;SDS011;47749;51.104;7.008;2023-11-19T01:25:29;3.60;;;1.40;;
61821;SDS011;47749;51.104;7.008;2023-11-19T01:25:49;3.40;;;1.30;;
61821;SDS011;47749;51.104;7.008;2023-11-19T01:26:10;3.47;;;1.40;;
61821;SDS011;47749;51.104;7.008;2023-11-19T01:26:30;2.50;;;1.40;;
61821;SDS011;47749;51.104;7.008;2023-11-19T01:26:50;2.47;;;1.40;;
61821;SDS011;47749;51.104;7.008;2023-11-19T01:27:12;2.47;;;1.38;;
61821;SDS011;47749;51.104;7.008;2023-11-19T01:27:32;2.57;;;1.60;;
61821;SDS011;47749;51.104;7.008;2023-11-19T01:27:54;2.58;;;1.58;;
61821;SDS011;47749;51.104;7.008;2023-11-19T01:28:17;2.38;;;1.40;;
61821;SDS011;47749;51.104;7.008;2023-11-19T01:28:39;2.67;;;1.40;;
61821;SDS011;47749;51.104;7.008;2023-11-19T01:28:59;2.65;;;1.45;;
61821;SDS011;47749;51.104;7.008;2023-11-19T01:29:21;2.35;;;1.40;;
61821;SDS011;47749;51.104;7.008;2023-11-19T01:29:41;3.08;;;1.40;;
61821;SDS011;47749;51.104;7.008;2023-11-19T01:30:03;2.80;;;1.50;;
61821;SDS011;47749;51.104;7.008;2023-11-19T01:30:24;2.85;;;1.40;;
61821;SDS011;47749;51.104;7.008;2023-11-19T01:30:44;2.50;;;1.48;;
61821;SDS011;47749;51.104;7.008;2023-11-19T01:31:05;2.67;;;1.40;;
61821;SDS011;47749;51.104;7.008;2023-11-19T01:31:25;3.50;;;1.40;;
61821;SDS011;47749;51.104;7.008;2023-11-19T01:31:45;3.97;;;1.50;;
61821;SDS011;47749;51.104;7.008;2023-11-19T01:32:06;2.53;;;1.40;;
61821;SDS011;47749;51.104;7.008;2023-11-19T01:32:27;2.67;;;1.40;;
61821;SDS011;47749;51.104;7.008;2023-11-19T01:32:47;4.00;;;1.50;;
61821;SDS011;47749;51.104;7.008;2023-11-19T01:33:07;3.63;;;1.45;;
61821;SDS011;47749;51.104;7.008;2023-11-19T01:33:28;2.33;;;1.47;;
61821;SDS011;47749;51.104;7.008;2023-11-19T01:33:48;3.20;;;1.57;;
61821;SDS011;47749;51.104;7.008;2023-11-19T01:34:08;3.67;;;1.50;;
61821;SDS011;47749;51.104;7.008;2023-11-19T01:34:29;3.07;;;1.50;;
61821;SDS011;47749;51.104;7.008;2023-11-19T01:34:49;3.90;;;1.50;;
61821;SDS011;47749;51.104;7.008;2023-11-19T01:35:09;4.30;;;1.83;;
61821;SDS011;47749;51.104;7.008;2023-11-19T01:35:30;3.83;;;1.90;;
61821;SDS011;47749;51.104;7.008;2023-11-19T01:35:50;3.42;;;1.77;;
61821;SDS011;47749;51.104;7.008;2023-11-19T01:36:13;3.30;;;1.70;;
61821;SDS011;47749;51.104;7.008;2023-11-19T01:36:33;3.75;;;1.60;;
61821;SDS011;47749;51.104;7.008;2023-11-19T01:36:53;3.00;;;1.60;;
61821;SDS011;47749;51.104;7.008;2023-11-19T01:37:13;2.53;;;1.67;;
61821;SDS011;47749;51.104;7.008;2023-11-19T01:37:34;2.85;;;1.60;;
61821;SDS011;47749;51.104;7.008;2023-11-19T01:37:57;2.63;;;1.60;;
61821;SDS011;47749;51.104;7.008;2023-11-19T01:38:17;3.03;;;1.70;;
61821;SDS011;47749;51.104;7.008;2023-11-19T01:38:38;3.15;;;1.60;;
61821;SDS011;47749;51.104;7.008;2023-11-19T01:38:58;2.63;;;1.60;;
61821;SDS011;47749;51.104;7.008;2023-11-19T01:39:18;3.00;;;1.70;;
61821;SDS011;47749;51.104;7.008;2023-11-19T01:39:40;2.90;;;1.70;;
61821;SDS011;47749;51.104;7.008;2023-11-19T01:40:00;3.37;;;1.80;;
61821;SDS011;47749;51.104;7.008;2023-11-19T01:40:20;2.80;;;1.70;;
61821;SDS011;47749;51.104;7.008;2023-11-19T01:40:41;3.45;;;1.67;;
61821;SDS011;47749;51.104;7.008;2023-11-19T01:41:01;3.67;;;1.70;;
61821;SDS011;47749;51.104;7.008;2023-11-19T01:41:23;4.22;;;1.90;;
61821;SDS011;47749;51.104;7.008;2023-11-19T01:41:45;3.20;;;1.63;;
61821;SDS011;47749;51.104;7.008;2023-11-19T01:42:05;2.43;;;1.47;;
61821;SDS011;47749;51.104;7.008;2023-11-19T01:42:25;2.42;;;1.42;;
61821;SDS011;47749;51.104;7.008;2023-11-19T01:42:45;2.60;;;1.60;;
61821;SDS011;47749;51.104;7.008;2023-11-19T01:43:06;3.47;;;1.80;;
61821;SDS011;47749;51.104;7.008;2023-11-19T01:43:53;3.42;;;1.83;;
61821;SDS011;47749;51.104;7.008;2023-11-19T01:44:14;3.78;;;1.88;;
61821;SDS011;47749;51.104;7.008;2023-11-19T01:44:36;3.10;;;1.70;;
61821;SDS011;47749;51.104;7.008;2023-11-19T01:44:59;4.07;;;1.70;;
61821;SDS011;47749;51.104;7.008;2023-11-19T01:45:29;5.28;;;1.90;;
61821;SDS011;47749;51.104;7.008;2023-11-19T01:45:50;3.47;;;1.58;;
61821;SDS011;47749;51.104;7.008;2023-11-19T01:46:11;2.80;;;1.70;;
61821;SDS011;47749;51.104;7.008;2023-11-19T01:46:31;3.40;;;2.00;;
61821;SDS011;47749;51.104;7.008;2023-11-19T01:46:54;2.95;;;1.80;;
61821;SDS011;47749;51.104;7.008;2023-11-19T01:47:15;3.22;;;1.70;;
61821;SDS011;47749;51.104;7.008;2023-11-19T01:47:35;2.87;;;1.70;;
61821;SDS011;47749;51.104;7.008;2023-11-19T01:47:56;3.33;;;1.70;;
61821;SDS011;47749;51.104;7.008;2023-11-19T01:48:17;3.65;;;1.80;;
61821;SDS011;47749;51.104;7.008;2023-11-19T01:48:40;3.23;;;1.80;;
61821;SDS011;47749;51.104;7.008;2023-11-19T01:49:01;2.85;;;1.77;;
61821;SDS011;47749;51.104;7.008;2023-11-19T01:49:22;3.30;;;1.75;;
61821;SDS011;47749;51.104;7.008;2023-11-19T01:49:42;3.95;;;1.83;;
61821;SDS011;47749;51.104;7.008;2023-11-19T01:50:03;3.67;;;1.80;;
61821;SDS011;47749;51.104;7.008;2023-11-19T01:50:27;4.20;;;1.80;;
61821;SDS011;47749;51.104;7.008;2023-11-19T01:50:48;3.00;;;1.80;;
61821;SDS011;47749;51.104;7.008;2023-11-19T01:51:08;3.13;;;1.80;;
61821;SDS011;47749;51.104;7.008;2023-11-19T01:51:29;3.30;;;1.90;;
61821;SDS011;47749;51.104;7.008;2023-11-19T01:51:49;3.25;;;1.90;;
61821;SDS011;47749;51.104;7.008;2023-11-19T01:52:09;3.50;;;2.00;;
61821;SDS011;47749;51.104;7.008;2023-11-19T01:52:30;3.38;;;1.90;;
61821;SDS011;47749;51.104;7.008;2023-11-19T01:52:52;3.60;;;2.00;;
61821;SDS011;47749;51.104;7.008;2023-11-19T01:53:12;3.50;;;1.73;;
61821;SDS011;47749;51.104;7.008;2023-11-19T01:53:33;3.88;;;1.90;;
61821;SDS011;47749;51.104;7.008;2023-11-19T01:53:54;4.00;;;1.90;;
61821;SDS011;47749;51.104;7.008;2023-11-19T01:54:15;3.75;;;1.90;;
61821;SDS011;47749;51.104;7.008;2023-11-19T01:54:36;3.65;;;1.80;;
61821;SDS011;47749;51.104;7.008;2023-11-19T01:54:57;4.13;;;2.05;;
61821;SDS011;47749;51.104;7.008;2023-11-19T01:55:18;3.70;;;2.00;;
61821;SDS011;47749;51.104;7.008;2023-11-19T01:55:39;3.60;;;1.95;;
61821;SDS011;47749;51.104;7.008;2023-11-19T01:55:59;3.77;;;1.90;;
61821;SDS011;47749;51.104;7.008;2023-11-19T01:56:20;4.53;;;1.95;;
61821;SDS011;47749;51.104;7.008;2023-11-19T01:56:40;3.40;;;1.95;;
61821;SDS011;47749;51.104;7.008;2023-11-19T01:57:01;3.47;;;2.00;;
61821;SDS011;47749;51.104;7.008;2023-11-19T01:57:21;3.90;;;2.00;;
61821;SDS011;47749;51.104;7.008;2023-11-19T01:57:42;3.47;;;1.90;;
61821;SDS011;47749;51.104;7.008;2023-11-19T01:58:03;3.63;;;2.10;;
61821;SDS011;47749;51.104;7.008;2023-11-19T01:58:23;3.47;;;2.20;;
61821;SDS011;47749;51.104;7.008;2023-11-19T01:58:44;3.60;;;2.13;;
61821;SDS011;47749;51.104;7.008;2023-11-19T01:59:05;3.55;;;1.90;;
61821;SDS011;47749;51.104;7.008;2023-11-19T01:59:27;3.25;;;1.80;;
61821;SDS011;47749;51.104;7.008;2023-11-19T01:59:48;2.83;;;1.80;;
61821;SDS011;47749;51.104;7.008;2023-11-19T02:00:09;3.15;;;1.80;;
61821;SDS011;47749;51.104;7.008;2023-11-19T02:00:38;3.63;;;1.80;;
61821;SDS011;47749;51.104;7.008;2023-11-19T02:00:58;3.38;;;1.95;;
61821;SDS011;47749;51.104;7.008;2023-11-19T02:01:19;3.25;;;1.90;;
61821;SDS011;47749;51.104;7.008;2023-11-19T02:01:40;3.58;;;1.73;;
61821;SDS011;47749;51.104;7.008;2023-11-19T02:02:00;3.50;;;1.80;;
61821;SDS011;47749;51.104;7.008;2023-11-19T02:02:21;4.13;;;2.00;;
61821;SDS011;47749;51.104;7.008;2023-11-19T02:02:42;4.30;;;2.15;;
61821;SDS011;47749;51.104;7.008;2023-11-19T02:03:03;4.03;;;2.00;;
61821;SDS011;47749;51.104;7.008;2023-11-19T02:03:23;3.50;;;1.85;;
61821;SDS011;47749;51.104;7.008;2023-11-19T02:03:46;3.33;;;1.90;;
61821;SDS011;47749;51.104;7.008;2023-11-19T02:04:07;3.25;;;2.10;;
61821;SDS011;47749;51.104;7.008;2023-11-19T02:04:28;3.60;;;2.20;;
61821;SDS011;47749;51.104;7.008;2023-11-19T02:04:49;4.53;;;2.13;;
61821;SDS011;47749;51.104;7.008;2023-11-19T02:05:12;3.95;;;2.20;;
61821;SDS011;47749;51.104;7.008;2023-11-19T02:05:33;3.25;;;1.90;;
61821;SDS011;47749;51.104;7.008;2023-11-19T02:05:54;3.25;;;1.90;;
61821;SDS011;47749;51.104;7.008;2023-11-19T02:06:14;4.13;;;2.00;;